KCXE

Chase City Municipal Airport

Chase City, Virginia, USA
METAR KCXE 190310Z AUTO 00000KT 10SM CLR M02/M09 A3019 RMK AO1 T10221090
Observed Flight Rules
Jan-19 @ 03:10 UTC (29 minutes ago) Visual Flight Rules
Wind Visibility Clouds
Calm 10 miles
  • Clear skies
Temperatures Readings
Current -2°C / 28°F
Dewpoint -9°C / 16°F
Humidity 59%
Altimeter 30.19" Hg
Pressure 1022 hPa
Elevation 153
METAR KCXE 190310Z AUTO 00000KT 10SM CLR M02/M09 A3019 RMK AO1 T10221090
Observed Flight Rules
Jan-19 @ 03:10 UTC
(29 minutes ago)
VFR
Wind Visibility
Calm 10 miles
Clouds
  • Clear skies
Temperature Dewpoint
-2°C / 28°F -9°C / 16°F
Humidity Altimeter Pressure
59% 30.19" Hg 1022 hPa